Relevés horaires Bierset (Belgique)


Relevés horaires à Bierset - Lundi 15 Oct. 2018
Heure UTC1 Température [°C] Vent [km/h] Hum. [%] Pres.4 [hPa] Visi. [Km] Nébu. [octa] Préc.5 [mm] Cond.
2m. Res. Ros. Dir.2 Vit. Moy. Raf.3
23:00 14.6 14.5 9.8 SE 7.4 7.4 13.0 73 1016.2(0.6/3h) 20 1/8 -- --
22:00 15.9 15.9 9.5 SE 5.6 7.4 16.7 66 1015.9(0.8/3h) 40 1/8 -- --
21:00 16.7 16.7 9.2 SE 5.6 7.4 11.1 61 1015.7(0.9/3h) 40 1/8 -- --
20:00 17.5 17.5 9.1 SE 5.6 5.6 7.4 58 1015.3(0.8/3h) 40 1/8 -- --
19:00 18.3 18.3 8.8 SE 5.6 5.6 7.4 54 1014.9(1.3/3h) 40 1/8 -- --
18:00 19.9 19.9 8.3 S 5.6 11.1 16.7 47 1014.5(1.4/3h) 40 1/8 0/12h
--
17:00 20.5 20.5 8.5 S 5.6 7.4 11.1 46 1014.2(1.4/3h) 40 1/8 -- --
16:00 21.6 21.6 9.0 S 7.4 9.3 11.1 44 1013.4(0.7/3h) 40 1/8 -- --
15:00 22.8 22.8 9.7 SO 7.4 11.1 16.7 43 1012.9(0.4/3h) 40 3/8 -- --
14:00 22.9 22.9 8.7 SO 9.3 11.1 14.8 40 1012.7(-0.1/3h) 40 3/8 -- --
13:00 22.3 22.3 8.9 SSO 11.1 11.1 14.8 42 1012.6(0.0/3h) 40 5/8 -- --
12:00 21.8 21.8 9.4 S 7.4 13.0 18.5 45 1012.6(0.4/3h) 40 6/8 0/6h
--
11:00 21.6 21.6 9.5 SSO 7.4 11.1 18.5 46 1012.8(0.9/3h) 40 6/8 -- --
10:00 20.7 20.7 8.4 S 11.1 13.0 16.7 45 1012.7(1.3/3h) 40 6/8 -- --
09:00 20.2 20.2 9.3 S 9.3 11.1 18.5 49 1012.3(1.4/3h) 40 6/8 -- --
08:00 18.4 18.4 8.1 S 9.3 9.3 16.7 51 1012.1(1.6/3h) 40 7/8 -- --
07:00 18.0 18.0 8.1 S 9.3 11.1 18.5 52 1011.6(1.3/3h) 40 7/8 -- --
06:00 17.9 17.9 8.2 S 9.3 11.1 18.5 53 1011(1.3/3h) 40 7/8 0/12h
--
05:00 17.4 17.4 7.6 S 9.3 9.3 18.5 53 1010.5(0.8/3h) 40 6/8 -- --
04:00 17.4 17.4 7.3 S 7.4 9.3 18.5 51 1010.2(0.3/3h) 40 6/8 -- --
03:00 17.8 17.8 7.1 S 9.3 11.1 18.5 49 1009.7(-0.3/3h) 40 6/8 -- --
02:00 18.2 18.2 6.9 S 9.3 11.1 18.5 48 1009.6(0.0/3h) 40 6/8 -- --
01:00 18.2 18.2 6.9 S 5.6 7.4 13.0 48 1009.9(0.6/3h) 40 6/8 -- --
00:00 18.0 18.0 6.7 S 7.4 9.3 20.4 48 1010(0.8/3h) 40 6/8 0/6h
0/24h
--

1 Coordinated Universal Time. Actuellement il est 08:00 locale et 06:00 UTC.

2 Le vent souffle depuis la direction indiquée vers la direction oposée.

3 Les rafales max. sont disponible 40 min après l'heure du relevé.

4 Pour les stations d'altitude (plus de 600m) le géopotentiel du niveau le plus proche de la pression obligatoire est indiqué.

5 Les stations disposant d'un diffuseur peuvent indiquer "trace". Cela signifie que des précipitations ont touchés le sol mais que la quantité est inférieure à 0.1 mm.

Récapitulatif de la journée
Température [°C] Vent [km/h] Ensoleillement4 [h] Precipitations totale5 [mm] Pression [Hpa]
Min1 Max.2 Moy.3 Max. Min Max.
17.3 23.0 9.7 20.4 0 h 0 min 0 1009.6 1016.2

1 Température minimale relevée entre 18:00 UTC la veille et 18:00 UTC le jour donné.

2 Température maximale relevée entre 06:00 UTC le jour donné et 06:00 UTC le lendemain.

3 Vent moyen de la journée basé sur les relevés horaires.

4 Ensoleillement en heures relevé entre 06:00 UTC la veille et 06:00 UTC le jour donné.

5 Précipitations totales tombées entre 06:00 UTC la jour donné et 06:00 UTC le lendemain.

Graphiques horaires